sensor_id;sensor_type;location;lat;lon;timestamp;temperature;humidity
76996;DHT22;65929;49.062;10.338;2023-01-04T00:00:16;-0.20;96.80
76996;DHT22;65929;49.062;10.338;2023-01-04T00:01:19;-0.20;96.90
76996;DHT22;65929;49.062;10.338;2023-01-04T00:02:20;-0.20;96.80
76996;DHT22;65929;49.062;10.338;2023-01-04T00:03:21;-0.20;96.80
76996;DHT22;65929;49.062;10.338;2023-01-04T00:04:23;-0.20;96.80
76996;DHT22;65929;49.062;10.338;2023-01-04T00:05:24;-0.20;96.80
76996;DHT22;65929;49.062;10.338;2023-01-04T00:06:25;-0.20;96.80
76996;DHT22;65929;49.062;10.338;2023-01-04T00:07:28;-0.20;96.80
76996;DHT22;65929;49.062;10.338;2023-01-04T00:08:29;-0.30;96.80
76996;DHT22;65929;49.062;10.338;2023-01-04T00:09:30;-0.30;96.80
76996;DHT22;65929;49.062;10.338;2023-01-04T00:10:31;-0.30;96.80
76996;DHT22;65929;49.062;10.338;2023-01-04T00:11:32;-0.30;96.80
76996;DHT22;65929;49.062;10.338;2023-01-04T00:12:34;-0.30;96.80
76996;DHT22;65929;49.062;10.338;2023-01-04T00:13:35;-0.30;96.80
76996;DHT22;65929;49.062;10.338;2023-01-04T00:14:36;-0.30;96.80
76996;DHT22;65929;49.062;10.338;2023-01-04T00:15:37;-0.30;96.90
76996;DHT22;65929;49.062;10.338;2023-01-04T00:16:38;-0.20;96.90
76996;DHT22;65929;49.062;10.338;2023-01-04T00:17:39;-0.20;96.90
76996;DHT22;65929;49.062;10.338;2023-01-04T00:18:40;-0.10;96.90
76996;DHT22;65929;49.062;10.338;2023-01-04T00:19:43;-0.10;96.90
76996;DHT22;65929;49.062;10.338;2023-01-04T00:20:44;-0.10;96.90
76996;DHT22;65929;49.062;10.338;2023-01-04T00:21:45;-0.10;96.90
76996;DHT22;65929;49.062;10.338;2023-01-04T00:22:46;-0.10;97.00
76996;DHT22;65929;49.062;10.338;2023-01-04T00:23:48;0.00;97.00
76996;DHT22;65929;49.062;10.338;2023-01-04T00:24:49;0.00;97.00
76996;DHT22;65929;49.062;10.338;2023-01-04T00:25:50;0.00;97.00
76996;DHT22;65929;49.062;10.338;2023-01-04T00:26:51;0.00;97.00
76996;DHT22;65929;49.062;10.338;2023-01-04T00:27:52;0.00;96.90
76996;DHT22;65929;49.062;10.338;2023-01-04T00:28:54;0.00;96.90
76996;DHT22;65929;49.062;10.338;2023-01-04T00:29:55;0.00;96.90
76996;DHT22;65929;49.062;10.338;2023-01-04T00:31:01;0.00;97.00
76996;DHT22;65929;49.062;10.338;2023-01-04T00:32:02;0.00;96.90
76996;DHT22;65929;49.062;10.338;2023-01-04T00:33:03;0.00;96.90
76996;DHT22;65929;49.062;10.338;2023-01-04T00:34:05;0.00;96.90
76996;DHT22;65929;49.062;10.338;2023-01-04T00:35:08;-0.10;96.90
76996;DHT22;65929;49.062;10.338;2023-01-04T00:36:11;-0.10;96.90
76996;DHT22;65929;49.062;10.338;2023-01-04T00:37:13;0.00;96.90
76996;DHT22;65929;49.062;10.338;2023-01-04T00:38:13;0.00;96.90
76996;DHT22;65929;49.062;10.338;2023-01-04T00:39:15;0.00;96.90
76996;DHT22;65929;49.062;10.338;2023-01-04T00:40:17;0.00;96.90
76996;DHT22;65929;49.062;10.338;2023-01-04T00:41:18;0.00;96.90
76996;DHT22;65929;49.062;10.338;2023-01-04T00:42:18;0.00;96.90
76996;DHT22;65929;49.062;10.338;2023-01-04T00:43:19;0.00;96.90
76996;DHT22;65929;49.062;10.338;2023-01-04T00:44:20;-0.10;96.90
76996;DHT22;65929;49.062;10.338;2023-01-04T00:45:21;-0.10;96.90
76996;DHT22;65929;49.062;10.338;2023-01-04T00:46:22;-0.10;96.90
76996;DHT22;65929;49.062;10.338;2023-01-04T00:47:23;-0.10;96.90
76996;DHT22;65929;49.062;10.338;2023-01-04T00:48:24;-0.10;96.90
76996;DHT22;65929;49.062;10.338;2023-01-04T00:49:26;-0.10;96.90
76996;DHT22;65929;49.062;10.338;2023-01-04T00:50:28;0.00;96.90
76996;DHT22;65929;49.062;10.338;2023-01-04T00:51:30;0.00;96.90
76996;DHT22;65929;49.062;10.338;2023-01-04T00:52:31;0.00;96.90
76996;DHT22;65929;49.062;10.338;2023-01-04T00:53:32;0.00;96.80
76996;DHT22;65929;49.062;10.338;2023-01-04T00:54:33;0.00;96.90
76996;DHT22;65929;49.062;10.338;2023-01-04T00:55:33;0.00;96.80
76996;DHT22;65929;49.062;10.338;2023-01-04T00:56:34;0.00;96.80
76996;DHT22;65929;49.062;10.338;2023-01-04T00:57:35;-0.10;96.80
76996;DHT22;65929;49.062;10.338;2023-01-04T00:58:36;0.00;96.90
76996;DHT22;65929;49.062;10.338;2023-01-04T00:59:37;0.00;96.80
76996;DHT22;65929;49.062;10.338;2023-01-04T01:00:38;0.00;96.80
76996;DHT22;65929;49.062;10.338;2023-01-04T01:01:40;0.00;96.80
76996;DHT22;65929;49.062;10.338;2023-01-04T01:02:41;-0.10;96.80
76996;DHT22;65929;49.062;10.338;2023-01-04T01:03:42;-0.10;96.90
76996;DHT22;65929;49.062;10.338;2023-01-04T01:04:44;-0.10;96.80
76996;DHT22;65929;49.062;10.338;2023-01-04T01:05:46;-0.10;96.80
76996;DHT22;65929;49.062;10.338;2023-01-04T01:06:47;-0.10;96.80
76996;DHT22;65929;49.062;10.338;2023-01-04T01:07:48;-0.10;96.80
76996;DHT22;65929;49.062;10.338;2023-01-04T01:08:49;-0.20;96.80
76996;DHT22;65929;49.062;10.338;2023-01-04T01:09:50;-0.10;96.80
76996;DHT22;65929;49.062;10.338;2023-01-04T01:10:51;-0.20;96.80
76996;DHT22;65929;49.062;10.338;2023-01-04T01:11:53;-0.20;96.80
76996;DHT22;65929;49.062;10.338;2023-01-04T01:12:54;-0.20;96.80
76996;DHT22;65929;49.062;10.338;2023-01-04T01:13:55;-0.20;96.80
76996;DHT22;65929;49.062;10.338;2023-01-04T01:14:57;-0.20;96.80
76996;DHT22;65929;49.062;10.338;2023-01-04T01:16:02;-0.20;96.80
76996;DHT22;65929;49.062;10.338;2023-01-04T01:17:03;-0.20;96.80
76996;DHT22;65929;49.062;10.338;2023-01-04T01:18:04;-0.10;96.80
76996;DHT22;65929;49.062;10.338;2023-01-04T01:19:04;-0.10;96.80
76996;DHT22;65929;49.062;10.338;2023-01-04T01:20:06;-0.10;96.80
76996;DHT22;65929;49.062;10.338;2023-01-04T01:21:11;-0.10;96.80
76996;DHT22;65929;49.062;10.338;2023-01-04T01:22:12;-0.10;96.80
76996;DHT22;65929;49.062;10.338;2023-01-04T01:23:14;0.00;96.80
76996;DHT22;65929;49.062;10.338;2023-01-04T01:24:17;0.00;96.80
76996;DHT22;65929;49.062;10.338;2023-01-04T01:25:18;0.00;96.90
76996;DHT22;65929;49.062;10.338;2023-01-04T01:26:21;0.00;96.90
76996;DHT22;65929;49.062;10.338;2023-01-04T01:27:22;0.00;96.90
76996;DHT22;65929;49.062;10.338;2023-01-04T01:28:23;0.10;96.90
76996;DHT22;65929;49.062;10.338;2023-01-04T01:29:24;0.00;96.90
76996;DHT22;65929;49.062;10.338;2023-01-04T01:30:25;0.10;96.80
76996;DHT22;65929;49.062;10.338;2023-01-04T01:31:27;0.10;96.90
76996;DHT22;65929;49.062;10.338;2023-01-04T01:32:28;0.10;96.90
76996;DHT22;65929;49.062;10.338;2023-01-04T01:33:29;0.10;96.90
76996;DHT22;65929;49.062;10.338;2023-01-04T01:34:30;0.10;96.80
76996;DHT22;65929;49.062;10.338;2023-01-04T01:35:31;0.20;96.80
76996;DHT22;65929;49.062;10.338;2023-01-04T01:36:34;0.20;96.80
76996;DHT22;65929;49.062;10.338;2023-01-04T01:37:36;0.10;96.80
76996;DHT22;65929;49.062;10.338;2023-01-04T01:38:37;0.10;96.80
76996;DHT22;65929;49.062;10.338;2023-01-04T01:39:38;0.10;96.80
76996;DHT22;65929;49.062;10.338;2023-01-04T01:40:40;0.10;96.70
76996;DHT22;65929;49.062;10.338;2023-01-04T01:41:41;0.10;96.70
76996;DHT22;65929;49.062;10.338;2023-01-04T01:42:42;0.10;96.70
76996;DHT22;65929;49.062;10.338;2023-01-04T01:44:02;0.00;96.70
76996;DHT22;65929;49.062;10.338;2023-01-04T01:45:06;0.00;96.60
76996;DHT22;65929;49.062;10.338;2023-01-04T01:47:26;0.00;96.60
76996;DHT22;65929;49.062;10.338;2023-01-04T01:48:28;0.00;96.60
76996;DHT22;65929;49.062;10.338;2023-01-04T01:49:32;0.00;96.50
76996;DHT22;65929;49.062;10.338;2023-01-04T01:50:39;0.00;96.50
76996;DHT22;65929;49.062;10.338;2023-01-04T01:51:45;0.00;96.50
76996;DHT22;65929;49.062;10.338;2023-01-04T01:52:47;0.00;96.50
76996;DHT22;65929;49.062;10.338;2023-01-04T01:53:51;0.00;96.50
76996;DHT22;65929;49.062;10.338;2023-01-04T01:54:58;0.00;96.40
76996;DHT22;65929;49.062;10.338;2023-01-04T01:55:59;0.00;96.40
76996;DHT22;65929;49.062;10.338;2023-01-04T01:57:03;0.00;96.40
76996;DHT22;65929;49.062;10.338;2023-01-04T01:58:06;0.00;96.30
76996;DHT22;65929;49.062;10.338;2023-01-04T01:59:09;0.00;96.30
76996;DHT22;65929;49.062;10.338;2023-01-04T02:00:12;0.00;96.30
76996;DHT22;65929;49.062;10.338;2023-01-04T02:01:14;0.00;96.20
76996;DHT22;65929;49.062;10.338;2023-01-04T02:02:15;0.00;96.30
76996;DHT22;65929;49.062;10.338;2023-01-04T02:03:19;0.00;96.20
76996;DHT22;65929;49.062;10.338;2023-01-04T02:04:20;0.00;96.30
76996;DHT22;65929;49.062;10.338;2023-01-04T02:05:21;0.00;96.20
76996;DHT22;65929;49.062;10.338;2023-01-04T02:06:26;0.00;96.20
76996;DHT22;65929;49.062;10.338;2023-01-04T02:07:30;0.00;96.30
76996;DHT22;65929;49.062;10.338;2023-01-04T02:08:31;0.00;96.20
76996;DHT22;65929;49.062;10.338;2023-01-04T02:09:33;0.00;96.20
76996;DHT22;65929;49.062;10.338;2023-01-04T02:10:35;0.00;96.20
76996;DHT22;65929;49.062;10.338;2023-01-04T02:11:36;0.00;96.20
76996;DHT22;65929;49.062;10.338;2023-01-04T02:12:37;0.00;96.20
76996;DHT22;65929;49.062;10.338;2023-01-04T02:13:38;0.00;96.30
76996;DHT22;65929;49.062;10.338;2023-01-04T02:14:59;0.00;96.20
76996;DHT22;65929;49.062;10.338;2023-01-04T02:16:05;0.00;96.30
76996;DHT22;65929;49.062;10.338;2023-01-04T02:17:12;0.00;96.30
76996;DHT22;65929;49.062;10.338;2023-01-04T02:18:18;0.10;96.40
76996;DHT22;65929;49.062;10.338;2023-01-04T02:19:49;0.10;96.40
76996;DHT22;65929;49.062;10.338;2023-01-04T02:20:58;0.20;96.50
76996;DHT22;65929;49.062;10.338;2023-01-04T02:22:20;0.20;96.50
76996;DHT22;65929;49.062;10.338;2023-01-04T02:23:56;0.30;96.50
76996;DHT22;65929;49.062;10.338;2023-01-04T02:25:16;0.30;96.50
76996;DHT22;65929;49.062;10.338;2023-01-04T02:26:52;0.40;96.60
76996;DHT22;65929;49.062;10.338;2023-01-04T02:28:01;0.40;96.60
76996;DHT22;65929;49.062;10.338;2023-01-04T02:32:29;0.50;96.70
76996;DHT22;65929;49.062;10.338;2023-01-04T02:33:43;0.50;96.70
76996;DHT22;65929;49.062;10.338;2023-01-04T02:34:52;0.50;96.80
76996;DHT22;65929;49.062;10.338;2023-01-04T02:35:59;0.50;96.80
76996;DHT22;65929;49.062;10.338;2023-01-04T02:37:07;0.50;96.80
76996;DHT22;65929;49.062;10.338;2023-01-04T02:38:14;0.50;96.90
76996;DHT22;65929;49.062;10.338;2023-01-04T02:39:24;0.50;96.90
76996;DHT22;65929;49.062;10.338;2023-01-04T02:40:33;0.60;96.90
76996;DHT22;65929;49.062;10.338;2023-01-04T02:41:42;0.60;96.90
76996;DHT22;65929;49.062;10.338;2023-01-04T02:42:58;0.60;96.90
76996;DHT22;65929;49.062;10.338;2023-01-04T02:44:23;0.60;97.00
76996;DHT22;65929;49.062;10.338;2023-01-04T02:45:47;0.70;97.10
76996;DHT22;65929;49.062;10.338;2023-01-04T02:46:54;0.80;97.10
76996;DHT22;65929;49.062;10.338;2023-01-04T02:48:03;0.80;97.10
76996;DHT22;65929;49.062;10.338;2023-01-04T02:49:23;0.80;97.10
76996;DHT22;65929;49.062;10.338;2023-01-04T02:50:50;0.80;97.10
76996;DHT22;65929;49.062;10.338;2023-01-04T02:51:51;0.90;97.20
76996;DHT22;65929;49.062;10.338;2023-01-04T02:52:52;1.00;97.20
76996;DHT22;65929;49.062;10.338;2023-01-04T02:53:53;1.00;97.30
76996;DHT22;65929;49.062;10.338;2023-01-04T02:54:56;1.00;97.30
76996;DHT22;65929;49.062;10.338;2023-01-04T02:56:07;1.00;97.30
76996;DHT22;65929;49.062;10.338;2023-01-04T02:57:21;1.00;97.30
76996;DHT22;65929;49.062;10.338;2023-01-04T02:58:38;1.00;97.30
76996;DHT22;65929;49.062;10.338;2023-01-04T03:00:00;1.10;97.30
76996;DHT22;65929;49.062;10.338;2023-01-04T03:01:09;1.10;97.30
76996;DHT22;65929;49.062;10.338;2023-01-04T03:02:57;1.10;97.30
76996;DHT22;65929;49.062;10.338;2023-01-04T03:04:32;1.20;97.40
76996;DHT22;65929;49.062;10.338;2023-01-04T03:06:02;1.20;97.40
76996;DHT22;65929;49.062;10.338;2023-01-04T03:07:22;1.20;97.40
76996;DHT22;65929;49.062;10.338;2023-01-04T03:08:29;1.20;97.50
76996;DHT22;65929;49.062;10.338;2023-01-04T03:09:34;1.20;97.40
76996;DHT22;65929;49.062;10.338;2023-01-04T03:10:42;1.20;97.50
76996;DHT22;65929;49.062;10.338;2023-01-04T03:11:50;1.30;97.50
76996;DHT22;65929;49.062;10.338;2023-01-04T03:13:16;1.30;97.50
76996;DHT22;65929;49.062;10.338;2023-01-04T03:14:19;1.40;97.50
76996;DHT22;65929;49.062;10.338;2023-01-04T03:15:22;1.30;97.50
76996;DHT22;65929;49.062;10.338;2023-01-04T03:16:24;1.40;97.50
76996;DHT22;65929;49.062;10.338;2023-01-04T03:17:30;1.40;97.50
76996;DHT22;65929;49.062;10.338;2023-01-04T03:18:36;1.40;97.50
76996;DHT22;65929;49.062;10.338;2023-01-04T03:19:40;1.40;97.60
76996;DHT22;65929;49.062;10.338;2023-01-04T03:20:53;1.40;97.60
76996;DHT22;65929;49.062;10.338;2023-01-04T03:21:55;1.40;97.60
76996;DHT22;65929;49.062;10.338;2023-01-04T03:22:58;1.40;97.60
76996;DHT22;65929;49.062;10.338;2023-01-04T03:24:18;1.40;97.60
76996;DHT22;65929;49.062;10.338;2023-01-04T03:25:39;1.40;97.60
76996;DHT22;65929;49.062;10.338;2023-01-04T03:27:03;1.40;97.60
76996;DHT22;65929;49.062;10.338;2023-01-04T03:28:31;1.40;97.60
76996;DHT22;65929;49.062;10.338;2023-01-04T03:29:54;1.50;97.60
76996;DHT22;65929;49.062;10.338;2023-01-04T03:31:21;1.40;97.60
76996;DHT22;65929;49.062;10.338;2023-01-04T03:32:45;1.50;97.60
76996;DHT22;65929;49.062;10.338;2023-01-04T03:34:05;1.40;97.70
76996;DHT22;65929;49.062;10.338;2023-01-04T03:35:32;1.40;97.70
76996;DHT22;65929;49.062;10.338;2023-01-04T03:36:45;1.40;97.70
76996;DHT22;65929;49.062;10.338;2023-01-04T03:37:50;1.40;97.70
76996;DHT22;65929;49.062;10.338;2023-01-04T03:39:24;1.40;97.70
76996;DHT22;65929;49.062;10.338;2023-01-04T03:40:49;1.40;97.60
76996;DHT22;65929;49.062;10.338;2023-01-04T03:42:17;1.40;97.70
76996;DHT22;65929;49.062;10.338;2023-01-04T03:43:43;1.30;97.70
76996;DHT22;65929;49.062;10.338;2023-01-04T03:45:11;1.30;97.70
76996;DHT22;65929;49.062;10.338;2023-01-04T03:46:34;1.30;97.70
76996;DHT22;65929;49.062;10.338;2023-01-04T03:48:01;1.30;97.70
76996;DHT22;65929;49.062;10.338;2023-01-04T03:49:26;1.20;97.70
76996;DHT22;65929;49.062;10.338;2023-01-04T03:50:34;1.20;97.70
76996;DHT22;65929;49.062;10.338;2023-01-04T03:51:38;1.20;97.70
76996;DHT22;65929;49.062;10.338;2023-01-04T03:52:40;1.20;97.70
76996;DHT22;65929;49.062;10.338;2023-01-04T03:53:50;1.20;97.70
76996;DHT22;65929;49.062;10.338;2023-01-04T03:54:53;1.20;97.70
76996;DHT22;65929;49.062;10.338;2023-01-04T03:55:57;1.20;97.70
76996;DHT22;65929;49.062;10.338;2023-01-04T03:57:00;1.20;97.70
76996;DHT22;65929;49.062;10.338;2023-01-04T03:58:03;1.20;97.70
76996;DHT22;65929;49.062;10.338;2023-01-04T03:59:04;1.20;97.70
76996;DHT22;65929;49.062;10.338;2023-01-04T04:00:09;1.20;97.70
76996;DHT22;65929;49.062;10.338;2023-01-04T04:01:11;1.20;97.70
76996;DHT22;65929;49.062;10.338;2023-01-04T04:02:13;1.20;97.70
76996;DHT22;65929;49.062;10.338;2023-01-04T04:03:14;1.20;97.70
76996;DHT22;65929;49.062;10.338;2023-01-04T04:04:15;1.20;97.70
76996;DHT22;65929;49.062;10.338;2023-01-04T04:05:37;1.20;97.70
76996;DHT22;65929;49.062;10.338;2023-01-04T04:06:57;1.20;97.70
76996;DHT22;65929;49.062;10.338;2023-01-04T04:08:17;1.20;97.60
76996;DHT22;65929;49.062;10.338;2023-01-04T04:09:30;1.20;97.60
76996;DHT22;65929;49.062;10.338;2023-01-04T04:10:31;1.20;97.70
76996;DHT22;65929;49.062;10.338;2023-01-04T04:11:32;1.20;97.60
76996;DHT22;65929;49.062;10.338;2023-01-04T04:12:33;1.20;97.60
76996;DHT22;65929;49.062;10.338;2023-01-04T04:13:33;1.10;97.60
76996;DHT22;65929;49.062;10.338;2023-01-04T04:14:35;1.10;97.60
76996;DHT22;65929;49.062;10.338;2023-01-04T04:15:36;1.10;97.60
76996;DHT22;65929;49.062;10.338;2023-01-04T04:16:37;1.10;97.60
76996;DHT22;65929;49.062;10.338;2023-01-04T04:17:38;1.10;97.60
76996;DHT22;65929;49.062;10.338;2023-01-04T04:18:39;1.10;97.60
76996;DHT22;65929;49.062;10.338;2023-01-04T04:19:40;1.10;97.60
76996;DHT22;65929;49.062;10.338;2023-01-04T04:20:42;1.10;97.60
76996;DHT22;65929;49.062;10.338;2023-01-04T04:21:43;1.10;97.60
76996;DHT22;65929;49.062;10.338;2023-01-04T04:22:44;1.10;97.60
76996;DHT22;65929;49.062;10.338;2023-01-04T04:23:45;1.10;97.50
76996;DHT22;65929;49.062;10.338;2023-01-04T04:24:46;1.10;97.60
76996;DHT22;65929;49.062;10.338;2023-01-04T04:25:47;1.10;97.50
76996;DHT22;65929;49.062;10.338;2023-01-04T04:26:48;1.00;97.50
76996;DHT22;65929;49.062;10.338;2023-01-04T04:27:49;1.00;97.50
76996;DHT22;65929;49.062;10.338;2023-01-04T04:28:50;1.00;97.50
76996;DHT22;65929;49.062;10.338;2023-01-04T04:29:50;1.10;97.50
76996;DHT22;65929;49.062;10.338;2023-01-04T04:30:51;1.00;97.50
76996;DHT22;65929;49.062;10.338;2023-01-04T04:31:52;1.00;97.50
76996;DHT22;65929;49.062;10.338;2023-01-04T04:32:53;1.00;97.50
76996;DHT22;65929;49.062;10.338;2023-01-04T04:33:54;1.00;97.50
76996;DHT22;65929;49.062;10.338;2023-01-04T04:34:55;1.00;97.50
76996;DHT22;65929;49.062;10.338;2023-01-04T04:35:57;1.00;97.40
76996;DHT22;65929;49.062;10.338;2023-01-04T04:36:58;1.00;97.50
76996;DHT22;65929;49.062;10.338;2023-01-04T04:37:59;1.00;97.50
76996;DHT22;65929;49.062;10.338;2023-01-04T04:39:00;1.00;97.50
76996;DHT22;65929;49.062;10.338;2023-01-04T04:40:01;1.00;97.40
76996;DHT22;65929;49.062;10.338;2023-01-04T04:41:06;1.00;97.40
76996;DHT22;65929;49.062;10.338;2023-01-04T04:42:26;1.00;97.30
76996;DHT22;65929;49.062;10.338;2023-01-04T04:43:27;1.00;97.30
76996;DHT22;65929;49.062;10.338;2023-01-04T04:44:28;1.00;97.30
76996;DHT22;65929;49.062;10.338;2023-01-04T04:45:29;1.00;97.30
76996;DHT22;65929;49.062;10.338;2023-01-04T04:46:30;1.00;97.30
76996;DHT22;65929;49.062;10.338;2023-01-04T04:47:31;1.00;97.30
76996;DHT22;65929;49.062;10.338;2023-01-04T04:48:32;0.90;97.20
76996;DHT22;65929;49.062;10.338;2023-01-04T04:49:33;0.90;97.20
76996;DHT22;65929;49.062;10.338;2023-01-04T04:50:33;0.90;97.20
76996;DHT22;65929;49.062;10.338;2023-01-04T04:51:36;0.90;97.20
76996;DHT22;65929;49.062;10.338;2023-01-04T04:52:37;0.80;97.20
76996;DHT22;65929;49.062;10.338;2023-01-04T04:53:41;0.80;97.20
76996;DHT22;65929;49.062;10.338;2023-01-04T04:54:42;0.80;97.10
76996;DHT22;65929;49.062;10.338;2023-01-04T04:55:43;0.80;97.10
76996;DHT22;65929;49.062;10.338;2023-01-04T04:56:44;0.80;97.10
76996;DHT22;65929;49.062;10.338;2023-01-04T04:57:45;0.80;97.10
76996;DHT22;65929;49.062;10.338;2023-01-04T04:58:46;0.80;97.10
76996;DHT22;65929;49.062;10.338;2023-01-04T04:59:47;0.80;97.10
76996;DHT22;65929;49.062;10.338;2023-01-04T05:00:48;0.80;97.10
76996;DHT22;65929;49.062;10.338;2023-01-04T05:01:48;0.80;97.00
76996;DHT22;65929;49.062;10.338;2023-01-04T05:02:49;0.80;97.00
76996;DHT22;65929;49.062;10.338;2023-01-04T05:03:50;0.80;97.00
76996;DHT22;65929;49.062;10.338;2023-01-04T05:04:51;0.70;97.00
76996;DHT22;65929;49.062;10.338;2023-01-04T05:05:52;0.70;97.00
76996;DHT22;65929;49.062;10.338;2023-01-04T05:06:55;0.70;97.00
76996;DHT22;65929;49.062;10.338;2023-01-04T05:07:56;0.60;97.00
76996;DHT22;65929;49.062;10.338;2023-01-04T05:08:57;0.60;97.00
76996;DHT22;65929;49.062;10.338;2023-01-04T05:09:58;0.60;97.00
76996;DHT22;65929;49.062;10.338;2023-01-04T05:10:59;0.60;97.00
76996;DHT22;65929;49.062;10.338;2023-01-04T05:12:00;0.60;97.00
76996;DHT22;65929;49.062;10.338;2023-01-04T05:13:19;0.60;97.00
76996;DHT22;65929;49.062;10.338;2023-01-04T05:14:20;0.60;97.00
76996;DHT22;65929;49.062;10.338;2023-01-04T05:15:21;0.60;97.00
76996;DHT22;65929;49.062;10.338;2023-01-04T05:16:22;0.60;97.00
76996;DHT22;65929;49.062;10.338;2023-01-04T05:17:23;0.60;97.00
76996;DHT22;65929;49.062;10.338;2023-01-04T05:18:24;0.60;97.00
76996;DHT22;65929;49.062;10.338;2023-01-04T05:19:25;0.60;97.00
76996;DHT22;65929;49.062;10.338;2023-01-04T05:20:26;0.60;97.00
76996;DHT22;65929;49.062;10.338;2023-01-04T05:21:27;0.60;97.00
76996;DHT22;65929;49.062;10.338;2023-01-04T05:22:29;0.60;97.00
76996;DHT22;65929;49.062;10.338;2023-01-04T05:23:30;0.60;97.00
76996;DHT22;65929;49.062;10.338;2023-01-04T05:24:31;0.60;97.00
76996;DHT22;65929;49.062;10.338;2023-01-04T05:25:32;0.60;97.00
76996;DHT22;65929;49.062;10.338;2023-01-04T05:26:33;0.60;97.00
76996;DHT22;65929;49.062;10.338;2023-01-04T05:27:33;0.60;97.00
76996;DHT22;65929;49.062;10.338;2023-01-04T05:28:34;0.60;97.00
76996;DHT22;65929;49.062;10.338;2023-01-04T05:29:35;0.60;97.00
76996;DHT22;65929;49.062;10.338;2023-01-04T05:30:55;0.60;97.00
76996;DHT22;65929;49.062;10.338;2023-01-04T05:31:56;0.60;97.00
76996;DHT22;65929;49.062;10.338;2023-01-04T05:32:57;0.60;97.00
76996;DHT22;65929;49.062;10.338;2023-01-04T05:33:58;0.60;97.00
76996;DHT22;65929;49.062;10.338;2023-01-04T05:34:59;0.60;97.00
76996;DHT22;65929;49.062;10.338;2023-01-04T05:36:02;0.60;97.00
76996;DHT22;65929;49.062;10.338;2023-01-04T05:37:03;0.60;97.00
76996;DHT22;65929;49.062;10.338;2023-01-04T05:38:05;0.60;97.00
76996;DHT22;65929;49.062;10.338;2023-01-04T05:39:07;0.60;97.10
76996;DHT22;65929;49.062;10.338;2023-01-04T05:40:09;0.60;97.10
76996;DHT22;65929;49.062;10.338;2023-01-04T05:41:10;0.60;97.00
76996;DHT22;65929;49.062;10.338;2023-01-04T05:42:29;0.60;97.10
76996;DHT22;65929;49.062;10.338;2023-01-04T05:43:30;0.60;97.10
76996;DHT22;65929;49.062;10.338;2023-01-04T05:44:31;0.70;97.10
76996;DHT22;65929;49.062;10.338;2023-01-04T05:45:32;0.70;97.10
76996;DHT22;65929;49.062;10.338;2023-01-04T05:46:33;0.70;97.10
76996;DHT22;65929;49.062;10.338;2023-01-04T05:47:34;0.80;97.10
76996;DHT22;65929;49.062;10.338;2023-01-04T05:48:35;0.80;97.10
76996;DHT22;65929;49.062;10.338;2023-01-04T05:49:36;0.80;97.10
76996;DHT22;65929;49.062;10.338;2023-01-04T05:50:37;0.80;97.20
76996;DHT22;65929;49.062;10.338;2023-01-04T05:51:38;0.80;97.20
76996;DHT22;65929;49.062;10.338;2023-01-04T05:52:39;0.90;97.20
76996;DHT22;65929;49.062;10.338;2023-01-04T05:53:41;1.00;97.20
76996;DHT22;65929;49.062;10.338;2023-01-04T05:54:42;1.00;97.20
76996;DHT22;65929;49.062;10.338;2023-01-04T05:55:44;1.00;97.20
76996;DHT22;65929;49.062;10.338;2023-01-04T05:56:45;1.00;97.10
76996;DHT22;65929;49.062;10.338;2023-01-04T05:57:46;1.00;97.10
76996;DHT22;65929;49.062;10.338;2023-01-04T05:58:47;1.00;97.20
76996;DHT22;65929;49.062;10.338;2023-01-04T05:59:48;1.00;97.10
76996;DHT22;65929;49.062;10.338;2023-01-04T06:00:49;1.10;97.10
76996;DHT22;65929;49.062;10.338;2023-01-04T06:01:50;1.10;97.10
76996;DHT22;65929;49.062;10.338;2023-01-04T06:02:50;1.10;97.20
76996;DHT22;65929;49.062;10.338;2023-01-04T06:03:52;1.10;97.10
76996;DHT22;65929;49.062;10.338;2023-01-04T06:04:53;1.10;97.10
76996;DHT22;65929;49.062;10.338;2023-01-04T06:05:54;1.10;97.10
76996;DHT22;65929;49.062;10.338;2023-01-04T06:06:54;1.20;97.10
76996;DHT22;65929;49.062;10.338;2023-01-04T06:07:55;1.20;97.00
76996;DHT22;65929;49.062;10.338;2023-01-04T06:08:58;1.20;97.00
76996;DHT22;65929;49.062;10.338;2023-01-04T06:09:59;1.20;97.00
76996;DHT22;65929;49.062;10.338;2023-01-04T06:11:00;1.20;97.00
76996;DHT22;65929;49.062;10.338;2023-01-04T06:12:00;1.20;97.00
76996;DHT22;65929;49.062;10.338;2023-01-04T06:13:01;1.20;96.90
76996;DHT22;65929;49.062;10.338;2023-01-04T06:14:02;1.20;96.90
76996;DHT22;65929;49.062;10.338;2023-01-04T06:15:04;1.20;96.80
76996;DHT22;65929;49.062;10.338;2023-01-04T06:16:06;1.20;96.80
76996;DHT22;65929;49.062;10.338;2023-01-04T06:17:07;1.20;96.80
76996;DHT22;65929;49.062;10.338;2023-01-04T06:18:09;1.20;96.80
76996;DHT22;65929;49.062;10.338;2023-01-04T06:19:10;1.20;96.80
76996;DHT22;65929;49.062;10.338;2023-01-04T06:20:11;1.30;96.80
76996;DHT22;65929;49.062;10.338;2023-01-04T06:21:12;1.30;96.70
76996;DHT22;65929;49.062;10.338;2023-01-04T06:22:13;1.30;96.70
76996;DHT22;65929;49.062;10.338;2023-01-04T06:23:14;1.30;96.70
76996;DHT22;65929;49.062;10.338;2023-01-04T06:24:16;1.30;96.70
76996;DHT22;65929;49.062;10.338;2023-01-04T06:25:18;1.40;96.70
76996;DHT22;65929;49.062;10.338;2023-01-04T06:26:19;1.40;96.70
76996;DHT22;65929;49.062;10.338;2023-01-04T06:27:21;1.40;96.70
76996;DHT22;65929;49.062;10.338;2023-01-04T06:28:21;1.40;96.60
76996;DHT22;65929;49.062;10.338;2023-01-04T06:29:22;1.40;96.70
76996;DHT22;65929;49.062;10.338;2023-01-04T06:30:23;1.40;96.60
76996;DHT22;65929;49.062;10.338;2023-01-04T06:31:24;1.40;96.60
76996;DHT22;65929;49.062;10.338;2023-01-04T06:32:25;1.50;96.60
76996;DHT22;65929;49.062;10.338;2023-01-04T06:33:26;1.50;96.60
76996;DHT22;65929;49.062;10.338;2023-01-04T06:34:27;1.60;96.60
76996;DHT22;65929;49.062;10.338;2023-01-04T06:35:28;1.60;96.50
76996;DHT22;65929;49.062;10.338;2023-01-04T06:36:29;1.60;96.50
76996;DHT22;65929;49.062;10.338;2023-01-04T06:37:30;1.60;96.50
76996;DHT22;65929;49.062;10.338;2023-01-04T06:38:32;1.70;96.40
76996;DHT22;65929;49.062;10.338;2023-01-04T06:39:34;1.70;96.40
76996;DHT22;65929;49.062;10.338;2023-01-04T06:40:36;1.70;96.20
76996;DHT22;65929;49.062;10.338;2023-01-04T06:41:38;1.70;96.10
76996;DHT22;65929;49.062;10.338;2023-01-04T06:42:38;1.70;96.00
76996;DHT22;65929;49.062;10.338;2023-01-04T06:43:46;1.70;95.90
76996;DHT22;65929;49.062;10.338;2023-01-04T06:44:46;1.70;95.80
76996;DHT22;65929;49.062;10.338;2023-01-04T06:45:47;1.70;95.70
76996;DHT22;65929;49.062;10.338;2023-01-04T06:46:48;1.70;95.60
76996;DHT22;65929;49.062;10.338;2023-01-04T06:47:49;1.70;95.50
76996;DHT22;65929;49.062;10.338;2023-01-04T06:48:50;1.70;95.40
76996;DHT22;65929;49.062;10.338;2023-01-04T06:49:53;1.70;95.30
76996;DHT22;65929;49.062;10.338;2023-01-04T06:50:54;1.70;95.30
76996;DHT22;65929;49.062;10.338;2023-01-04T06:51:55;1.70;95.20
76996;DHT22;65929;49.062;10.338;2023-01-04T06:52:56;1.60;95.20